Air Navigation Services of Czech Republic
Airport: LKKV Updated:  25.05.2018 02:00:07  UTC
 METAR LKKV 25.05. 02:00 ...
METAR LKKV 250200Z 10003KT 9999 -RA NSC 13/12 Q1020 RMK REG QNH 1016=
 TAF LKKV 24.05. 23:00 ...
TAF LKKV 242300Z 2500/2606 VRB02KT 9999 BKN033      TEMPO 2500/2507 6000 -RA BKN025      PROB30 TEMPO 2503/2506 1500 BCFG BKN003      TEMPO 2507/2515 09008KT 8000 SHRA SCT020CB      TEMPO 2602/2606 2000 MIFG SCT007=